Aérodrome :
LOGIN :

S'inscrire | Disclaimer

   EN    FR    IT 

 










Légende :    VFR   VFR Marginal   IFR   IFR Intensif   IFR Très Intensif
Visi : 
Plafond : 
>= 8 km
>= 3000ft
5 à 8 km
1000 à 3000 ft
1500m à 5 km
500 à 1000 ft
800 à 1500m
200 à 500 ft
< 800m
< 200 ft
Symboles :   Orages  Brouillard  Fortes neiges  Fortes précipitations  Vent > 20 kt
SIGMETs :   Divers  Orages  Givrage  Turbulence  Onde Orograph.  Cendres Volcan.






- Altitude de l'aérodrome : 19 ft
- Code IATA : LCY


EGLC - London City

DERNIER METAR :
  • 200550Z AUTO 21015G26KT 170V250 9999 BKN012 OVC017 10/08 Q0992

METARs EXPIRÉS :
  • 200520Z AUTO 21014G24KT 180V240 9999 -RA BKN012 OVC016 10/08 Q0993
  • 200450Z AUTO 21015G30KT 170V240 9999 BKN011 OVC023 10/08 Q0993
  • 200420Z AUTO 20015G26KT 170V240 9000 -RA BKN010/// OVC017/// //////TCU 10/08 Q0993 RERA
  • 200350Z AUTO 21013G23KT 180V240 9999 BKN010 OVC015 10/08 Q0994
  • 200320Z AUTO 21013G24KT 170V240 9999 BKN010 OVC017 10/08 Q0994

TAF TAF EGLC
Valide du 20 à 06h jusqu'au 20 à 15h UTC


200457Z 2006/2015 21012KT 9999 BKN012
TEMPO 2006/2015 22018G30KT 4000 RADZ BKN007
ATIS : +44 20 7646 0224



MET'MAP, la Météo Aéronautique d'un coup d'oeil ! - Copyright ORBIFLY Décembre 2007 - Disclaimer

ORBIFLY MET'MAP TEAM :

Programmation & Développement : Alexandra Zaïnal
Sur une idée originale de : Baudouin d'Aumeries
Assistance à la programmation : Marc-Olivier Méhu
Soutien technique & logistique : Manuel Goepfert

Contact : metmap@orbifly.com




SOURCES & CREDITS :

   NOAA